Tetney, United Kingdom
Current Conditions -  °F | °C
As of 11:50 PM on Monday 24 Nov 2014 (Local Time) from EGXS Reporting Station
Few Clouds Few Clouds  
Wind Chill: 32°   Ceiling: Unl
Heat Index: 37°   Visibility: 6mi
Dew Point: 36°   Wind: 7mph
Humidity: 93%   Direction: 190°S
Pressure: 30.3"   Gusts: NA
Location:  53.49°N, 0.02°W
Report Text: EGXS 242350Z AUTO 19006KT 9000 // FEW190/// 03/02 Q1026
Loading
Personal Weather Stations






























Interactive Weather Map New forecast layout! Learn more

10-Day Weather Forecast

Advertisements
Track Severe Weather on mobile